Time;durP1;ratioP1;P1;durP2;ratioP2;P2;SDS_P1;SDS_P2;PMS_P1;PMS_P2;Temp;Humidity;BMP_temperature;BMP_pressure;BME280_temperature;BME280_humidity;BME280_pressure;Samples;Min_cycle;Max_cycle;Signal;HPM_P1;HPM_P2
2021/12/31 00:00:23;;;;;;;34.03;17.17;;;6.20;99.90;;;;;;5139252;27;20468;-68
2021/12/31 00:02:50;;;;;;;35.63;17.37;;;6.20;99.90;;;;;;5139565;27;20386;-68
2021/12/31 00:05:17;;;;;;;36.20;18.03;;;6.30;99.90;;;;;;5140594;27;20157;-68
2021/12/31 00:07:47;;;;;;;34.40;17.73;;;6.30;99.90;;;;;;5160351;27;20372;-68
2021/12/31 00:10:15;;;;;;;35.27;16.90;;;6.30;99.90;;;;;;5158730;27;20569;-68
2021/12/31 00:12:43;;;;;;;30.50;16.50;;;6.30;99.90;;;;;;5159257;27;20182;-68
2021/12/31 00:15:14;;;;;;;31.97;16.33;;;6.30;99.90;;;;;;5159031;27;20137;-68
2021/12/31 00:17:42;;;;;;;31.33;16.83;;;6.40;99.90;;;;;;5140860;27;20141;-68
2021/12/31 00:20:15;;;;;;;32.17;16.43;;;6.40;99.90;;;;;;5157528;27;20152;-68
2021/12/31 00:23:01;;;;;;;29.67;16.20;;;6.40;99.90;;;;;;5140082;27;20381;-68
2021/12/31 00:25:30;;;;;;;31.57;16.00;;;6.40;99.90;;;;;;5148128;27;20160;-68
2021/12/31 00:27:58;;;;;;;32.80;17.30;;;6.40;99.90;;;;;;5139437;27;20153;-68
2021/12/31 00:30:25;;;;;;;35.00;17.40;;;6.50;99.90;;;;;;5158443;27;20127;-68
2021/12/31 00:32:52;;;;;;;32.20;17.33;;;6.50;99.90;;;;;;5139070;27;20178;-68
2021/12/31 00:35:19;;;;;;;31.03;17.10;;;6.50;99.90;;;;;;5158365;27;20149;-68
2021/12/31 00:37:47;;;;;;;31.00;16.43;;;6.60;99.90;;;;;;5158284;27;20162;-68
2021/12/31 00:40:17;;;;;;;34.27;17.97;;;6.60;99.90;;;;;;5156152;27;20438;-68
2021/12/31 00:42:45;;;;;;;37.17;18.37;;;6.70;99.90;;;;;;5160152;27;20384;-68
2021/12/31 00:45:15;;;;;;;38.17;19.27;;;6.70;99.90;;;;;;5140671;27;20148;-68
2021/12/31 00:47:44;;;;;;;34.27;17.77;;;6.70;99.90;;;;;;5156378;27;20364;-68
2021/12/31 00:50:13;;;;;;;35.80;18.13;;;6.70;99.90;;;;;;5159414;27;20121;-68
2021/12/31 00:52:40;;;;;;;34.77;17.83;;;6.70;99.90;;;;;;5140024;27;20153;-68
2021/12/31 00:55:10;;;;;;;35.23;18.07;;;6.80;99.90;;;;;;5157632;27;20157;-68
2021/12/31 00:57:38;;;;;;;34.77;18.20;;;6.80;99.90;;;;;;5158698;27;20149;-68
2021/12/31 01:00:08;;;;;;;36.10;18.20;;;6.80;99.90;;;;;;5138616;27;20151;-68
2021/12/31 01:02:35;;;;;;;33.73;17.37;;;6.80;99.90;;;;;;5139987;27;20149;-68
2021/12/31 01:05:03;;;;;;;37.47;17.53;;;6.90;99.90;;;;;;5159835;27;20160;-68
2021/12/31 01:07:31;;;;;;;36.37;18.63;;;6.90;99.90;;;;;;5139618;27;20362;-68
2021/12/31 01:10:00;;;;;;;37.93;18.37;;;6.90;99.90;;;;;;5140780;27;20142;-68
2021/12/31 01:12:28;;;;;;;39.30;18.37;;;7.00;99.90;;;;;;5157496;27;20150;-68
2021/12/31 01:15:06;;;;;;;39.40;18.03;;;7.00;99.90;;;;;;5157823;27;20524;-68
2021/12/31 01:17:47;;;;;;;38.43;18.23;;;7.00;99.90;;;;;;5140543;27;20396;-68
2021/12/31 01:20:17;;;;;;;46.17;18.60;;;7.10;99.90;;;;;;5140355;27;20151;-68
2021/12/31 01:22:45;;;;;;;43.13;18.37;;;7.10;99.90;;;;;;5156178;27;20577;-68
2021/12/31 01:25:12;;;;;;;41.73;17.43;;;7.20;99.90;;;;;;5156436;27;20161;-68
2021/12/31 01:27:39;;;;;;;41.77;18.43;;;7.20;99.90;;;;;;5141253;27;20168;-68
2021/12/31 01:30:09;;;;;;;42.13;17.90;;;7.20;99.90;;;;;;5157938;27;20371;-68
2021/12/31 01:32:37;;;;;;;42.60;18.10;;;7.30;99.90;;;;;;5124603;27;20230;-69
2021/12/31 01:35:04;;;;;;;40.17;17.67;;;7.30;99.90;;;;;;5158541;27;20380;-68
2021/12/31 01:37:32;;;;;;;40.27;17.60;;;7.30;99.90;;;;;;5139822;27;20187;-68
2021/12/31 01:39:59;;;;;;;42.37;18.10;;;7.30;99.90;;;;;;5160742;27;20364;-68
2021/12/31 01:42:31;;;;;;;36.50;15.33;;;7.30;99.90;;;;;;5157590;27;20413;-68
2021/12/31 01:45:10;;;;;;;38.20;16.67;;;7.30;99.90;;;;;;5158430;27;20191;-68
2021/12/31 01:48:22;;;;;;;38.73;16.17;;;7.30;99.90;;;;;;5157024;27;20426;-68
2021/12/31 01:50:31;;;;;;;39.37;16.03;;;7.30;99.90;;;;;;5157703;27;20505;-68
2021/12/31 01:52:59;;;;;;;41.77;17.10;;;7.30;99.90;;;;;;5141693;27;20382;-68
2021/12/31 01:55:32;;;;;;;39.03;16.50;;;7.30;99.90;;;;;;5140601;27;20343;-68
2021/12/31 01:58:01;;;;;;;40.00;15.83;;;7.30;99.90;;;;;;5141859;27;20427;-68
2021/12/31 02:00:29;;;;;;;40.27;16.20;;;7.30;99.90;;;;;;5141541;27;20160;-68
2021/12/31 02:02:58;;;;;;;35.80;15.87;;;7.30;99.90;;;;;;5142596;27;20142;-68
2021/12/31 02:05:26;;;;;;;43.50;16.90;;;7.30;99.90;;;;;;5159455;27;20562;-68
2021/12/31 02:07:53;;;;;;;37.47;15.90;;;7.30;99.90;;;;;;5157177;27;20207;-69
2021/12/31 02:10:21;;;;;;;41.13;17.13;;;7.30;99.90;;;;;;5158407;27;20159;-68
2021/12/31 02:12:48;;;;;;;40.13;16.90;;;7.30;99.90;;;;;;5158877;27;20147;-68
2021/12/31 02:15:17;;;;;;;41.27;16.60;;;7.30;99.90;;;;;;5157980;27;20210;-68
2021/12/31 02:17:47;;;;;;;44.87;16.30;;;7.30;99.90;;;;;;5157348;27;20162;-69
2021/12/31 02:20:20;;;;;;;38.37;16.07;;;7.30;99.90;;;;;;5140264;27;20175;-68
2021/12/31 02:23:05;;;;;;;45.17;16.03;;;7.30;99.90;;;;;;5159016;27;20164;-68
2021/12/31 02:25:35;;;;;;;46.43;15.70;;;7.30;99.90;;;;;;5157704;27;20181;-68
2021/12/31 02:28:03;;;;;;;40.53;14.83;;;7.30;99.90;;;;;;5142077;27;20144;-68
2021/12/31 02:30:30;;;;;;;40.60;15.13;;;7.30;99.90;;;;;;5158225;27;20372;-68
2021/12/31 02:32:59;;;;;;;40.77;15.13;;;7.30;99.90;;;;;;5141931;27;20151;-68
2021/12/31 02:35:26;;;;;;;41.33;15.33;;;7.30;99.90;;;;;;5140264;27;20154;-68
2021/12/31 02:37:53;;;;;;;43.50;15.70;;;7.30;99.90;;;;;;5140910;27;20154;-68
2021/12/31 02:40:22;;;;;;;40.77;15.30;;;7.40;99.90;;;;;;5157858;27;20404;-68
2021/12/31 02:42:49;;;;;;;42.40;15.70;;;7.40;99.90;;;;;;5160081;27;20360;-68
2021/12/31 02:45:21;;;;;;;41.07;15.50;;;7.40;99.90;;;;;;5158744;27;20183;-68
2021/12/31 02:47:48;;;;;;;38.60;15.17;;;7.50;99.90;;;;;;5140960;27;20151;-68
2021/12/31 02:50:18;;;;;;;39.07;14.53;;;7.50;99.90;;;;;;5140707;27;20145;-68
2021/12/31 02:52:46;;;;;;;41.43;15.07;;;7.50;99.90;;;;;;5141795;27;20490;-68
2021/12/31 02:55:15;;;;;;;47.27;16.13;;;7.60;99.90;;;;;;5141117;27;20423;-68
2021/12/31 02:57:43;;;;;;;40.37;14.93;;;7.60;99.90;;;;;;5159333;27;20145;-68
2021/12/31 03:00:11;;;;;;;43.00;15.23;;;7.60;99.90;;;;;;5160392;27;20163;-68
2021/12/31 03:02:40;;;;;;;45.37;16.00;;;7.60;99.90;;;;;;5141209;27;20161;-68
2021/12/31 03:05:09;;;;;;;47.00;15.87;;;7.60;99.90;;;;;;5159988;27;20187;-68
2021/12/31 03:07:40;;;;;;;42.53;15.03;;;7.60;99.90;;;;;;5140814;27;20152;-68
2021/12/31 03:10:09;;;;;;;44.77;15.17;;;7.70;99.90;;;;;;5139921;27;20182;-68
2021/12/31 03:12:39;;;;;;;46.27;15.67;;;7.70;99.90;;;;;;5159200;27;20348;-68
2021/12/31 03:15:08;;;;;;;38.27;14.27;;;7.70;99.90;;;;;;5156798;27;20256;-68
2021/12/31 03:17:35;;;;;;;45.70;15.63;;;7.70;99.90;;;;;;5141730;27;20157;-68
2021/12/31 03:20:25;;;;;;;39.47;14.60;;;7.80;99.90;;;;;;5159397;27;20121;-68
2021/12/31 03:22:52;;;;;;;41.57;14.73;;;7.80;99.90;;;;;;5160292;27;20121;-68
2021/12/31 03:25:19;;;;;;;46.50;15.67;;;7.80;99.90;;;;;;5158914;27;20140;-68
2021/12/31 03:27:47;;;;;;;41.53;14.77;;;7.70;99.90;;;;;;5159609;27;20152;-68
2021/12/31 03:30:16;;;;;;;41.57;14.83;;;7.80;99.90;;;;;;5140251;27;20161;-68
2021/12/31 03:32:43;;;;;;;47.27;15.40;;;7.80;99.90;;;;;;5158230;27;20195;-68
2021/12/31 03:35:10;;;;;;;43.57;15.47;;;7.80;99.90;;;;;;5158421;27;20148;-68
2021/12/31 03:37:37;;;;;;;52.90;16.20;;;7.80;99.90;;;;;;5157658;27;20161;-68
2021/12/31 03:40:05;;;;;;;46.00;15.87;;;7.80;99.90;;;;;;5156805;27;20225;-68
2021/12/31 03:42:33;;;;;;;51.33;16.43;;;7.80;99.90;;;;;;5141542;27;20204;-68
2021/12/31 03:45:00;;;;;;;47.17;16.20;;;7.90;99.90;;;;;;5140645;27;20402;-68
2021/12/31 03:47:27;;;;;;;48.23;16.83;;;7.90;99.90;;;;;;5158436;27;20170;-68
2021/12/31 03:49:54;;;;;;;50.03;16.30;;;7.90;99.90;;;;;;5157511;27;20188;-68
2021/12/31 03:52:21;;;;;;;47.80;16.97;;;7.90;99.90;;;;;;5158272;27;20165;-68
2021/12/31 03:54:48;;;;;;;51.87;16.80;;;7.90;99.90;;;;;;5158295;27;20186;-69
2021/12/31 03:57:15;;;;;;;52.30;16.27;;;7.90;99.90;;;;;;5158538;27;20155;-68
2021/12/31 03:59:42;;;;;;;47.73;15.17;;;7.90;99.90;;;;;;5158056;27;20151;-68
2021/12/31 04:02:10;;;;;;;45.03;15.30;;;7.90;99.90;;;;;;5140666;27;20162;-68
2021/12/31 04:04:37;;;;;;;44.87;15.47;;;8.00;99.90;;;;;;5139325;27;20257;-68
2021/12/31 04:07:05;;;;;;;44.20;14.43;;;8.00;99.90;;;;;;5156545;27;20143;-69
2021/12/31 04:09:32;;;;;;;42.03;14.43;;;8.00;99.90;;;;;;5140110;27;20198;-68
2021/12/31 04:11:59;;;;;;;44.43;15.07;;;8.00;99.90;;;;;;5156977;27;20140;-68
2021/12/31 04:14:27;;;;;;;37.00;14.30;;;8.00;99.90;;;;;;5156496;27;20162;-68
2021/12/31 04:16:54;;;;;;;36.10;13.40;;;8.00;99.90;;;;;;5156841;27;20188;-68
2021/12/31 04:19:21;;;;;;;42.07;14.33;;;8.00;99.90;;;;;;5157564;27;20135;-68
2021/12/31 04:21:50;;;;;;;33.60;13.07;;;8.10;99.90;;;;;;5158321;27;20130;-68
2021/12/31 04:27:04;;;;;;;37.40;13.80;;;8.10;99.90;;;;;;5158666;27;20148;-68
2021/12/31 04:29:31;;;;;;;37.40;13.50;;;8.20;99.90;;;;;;5139429;27;20244;-68
2021/12/31 04:32:00;;;;;;;35.90;12.73;;;8.20;99.90;;;;;;5159251;27;20209;-68
2021/12/31 04:34:28;;;;;;;35.57;12.53;;;8.20;99.90;;;;;;5158439;27;20173;-68
2021/12/31 04:36:55;;;;;;;35.53;12.40;;;8.30;99.90;;;;;;5139775;27;20205;-68
2021/12/31 04:39:22;;;;;;;36.30;12.90;;;8.30;99.90;;;;;;5158213;27;20191;-68
2021/12/31 04:41:49;;;;;;;36.00;13.37;;;8.30;99.90;;;;;;5160301;27;20360;-68
2021/12/31 04:44:16;;;;;;;35.07;12.67;;;8.40;99.90;;;;;;5157711;27;20408;-68
2021/12/31 04:46:44;;;;;;;35.97;13.20;;;8.40;99.90;;;;;;5139831;27;20141;-68
2021/12/31 04:49:11;;;;;;;36.83;12.67;;;8.50;99.90;;;;;;5157128;27;20148;-68
2021/12/31 04:51:42;;;;;;;42.67;13.67;;;8.50;99.90;;;;;;5160226;27;20423;-68
2021/12/31 04:54:14;;;;;;;43.43;14.27;;;8.60;99.90;;;;;;5158460;27;20392;-68
2021/12/31 04:56:43;;;;;;;43.97;14.60;;;8.60;99.90;;;;;;5140191;27;20409;-68
2021/12/31 04:59:11;;;;;;;42.30;14.37;;;8.70;99.90;;;;;;5140189;27;20155;-68
2021/12/31 05:01:38;;;;;;;44.93;14.37;;;8.70;99.90;;;;;;5156166;27;20170;-68
2021/12/31 05:04:06;;;;;;;45.93;13.63;;;8.70;99.90;;;;;;5156513;27;20442;-68
2021/12/31 05:06:34;;;;;;;51.53;15.27;;;8.70;99.90;;;;;;5156662;27;20157;-68
2021/12/31 05:09:01;;;;;;;50.07;14.77;;;8.80;99.90;;;;;;5139200;27;20191;-68
2021/12/31 05:11:28;;;;;;;46.47;14.13;;;8.80;99.90;;;;;;5140281;27;20189;-68
2021/12/31 05:13:55;;;;;;;50.73;14.43;;;8.80;99.90;;;;;;5159164;27;20182;-68
2021/12/31 05:16:22;;;;;;;49.30;14.33;;;8.80;99.90;;;;;;5158333;27;20191;-69
2021/12/31 05:18:50;;;;;;;40.47;13.83;;;8.80;99.90;;;;;;5158178;27;20157;-68
2021/12/31 05:21:17;;;;;;;48.83;14.67;;;8.80;99.90;;;;;;5157902;27;20151;-68
2021/12/31 05:23:44;;;;;;;47.93;15.20;;;8.90;99.90;;;;;;5141319;27;20396;-68
2021/12/31 05:26:11;;;;;;;42.47;13.57;;;8.90;99.90;;;;;;5157963;27;20204;-68
2021/12/31 05:28:38;;;;;;;46.23;14.53;;;8.90;99.90;;;;;;5159432;27;20171;-68
2021/12/31 05:31:06;;;;;;;46.37;14.80;;;8.90;99.90;;;;;;5159424;27;20108;-68
2021/12/31 05:33:33;;;;;;;46.83;14.13;;;8.90;99.90;;;;;;5159110;27;20149;-68
2021/12/31 05:36:01;;;;;;;40.87;14.03;;;8.90;99.90;;;;;;5157626;27;20144;-68
2021/12/31 05:38:28;;;;;;;42.33;13.50;;;9.00;99.90;;;;;;5159059;27;20468;-68
2021/12/31 05:40:55;;;;;;;42.43;13.83;;;9.00;99.90;;;;;;5141380;27;20144;-68
2021/12/31 05:43:23;;;;;;;40.97;13.27;;;9.00;99.90;;;;;;5139924;27;20393;-68
2021/12/31 05:45:50;;;;;;;39.43;13.73;;;9.00;99.90;;;;;;5157381;27;20427;-68
2021/12/31 05:48:23;;;;;;;37.27;13.10;;;9.10;99.90;;;;;;5157337;27;20499;-68
2021/12/31 05:50:51;;;;;;;39.07;13.60;;;9.10;99.90;;;;;;5158653;27;20140;-68
2021/12/31 05:53:19;;;;;;;40.70;13.63;;;9.00;99.90;;;;;;5140043;27;20180;-68
2021/12/31 05:55:46;;;;;;;40.67;13.40;;;9.10;99.90;;;;;;5158451;27;20166;-68
2021/12/31 05:58:14;;;;;;;40.80;13.87;;;9.10;99.90;;;;;;5157159;27;20493;-68
2021/12/31 06:00:41;;;;;;;40.63;13.57;;;9.10;99.90;;;;;;5158354;27;20175;-68
2021/12/31 06:03:08;;;;;;;36.60;13.10;;;9.20;99.90;;;;;;5159376;27;20416;-68
2021/12/31 06:05:36;;;;;;;37.20;13.10;;;9.20;99.90;;;;;;5158971;27;20401;-68
2021/12/31 06:08:03;;;;;;;39.57;13.13;;;9.20;99.90;;;;;;5140324;27;20155;-68
2021/12/31 06:10:32;;;;;;;34.53;13.17;;;9.20;99.90;;;;;;5157722;27;20156;-68
2021/12/31 06:13:00;;;;;;;36.60;12.67;;;9.30;99.90;;;;;;5159285;27;20162;-68
2021/12/31 06:15:29;;;;;;;40.77;13.73;;;9.30;99.90;;;;;;5139861;27;20528;-68
2021/12/31 06:17:56;;;;;;;37.83;13.27;;;9.30;99.90;;;;;;5139837;27;20495;-68
2021/12/31 06:20:35;;;;;;;31.47;12.20;;;9.30;99.90;;;;;;5157395;27;20164;-68
2021/12/31 06:23:02;;;;;;;31.60;12.10;;;9.30;99.90;;;;;;5156980;27;20147;-68
2021/12/31 06:25:33;;;;;;;30.97;11.63;;;9.30;99.90;;;;;;5158940;27;20409;-68
2021/12/31 06:28:03;;;;;;;29.43;11.63;;;9.30;99.90;;;;;;5140235;27;20151;-68
2021/12/31 06:30:31;;;;;;;24.03;10.33;;;9.40;99.90;;;;;;5157959;27;20138;-68
2021/12/31 06:33:00;;;;;;;27.83;11.53;;;9.40;99.90;;;;;;5159212;27;20489;-68
2021/12/31 06:35:27;;;;;;;30.17;11.17;;;9.40;99.90;;;;;;5141843;27;20437;-68
2021/12/31 06:37:57;;;;;;;27.90;11.00;;;9.40;99.90;;;;;;5157488;27;20491;-68
2021/12/31 06:40:24;;;;;;;30.33;11.33;;;9.40;99.90;;;;;;5156755;27;20175;-68
2021/12/31 06:42:52;;;;;;;29.97;11.23;;;9.40;99.90;;;;;;5158182;27;20202;-68
2021/12/31 06:45:19;;;;;;;28.77;11.73;;;9.40;99.90;;;;;;5156565;27;20588;-68
2021/12/31 06:47:46;;;;;;;25.20;10.87;;;9.50;99.90;;;;;;5158277;27;20176;-68
2021/12/31 06:50:13;;;;;;;24.50;10.70;;;9.50;99.90;;;;;;5140662;27;20534;-68
2021/12/31 06:52:42;;;;;;;22.37;9.37;;;9.50;99.90;;;;;;5139609;27;20574;-68
2021/12/31 06:55:11;;;;;;;24.10;10.37;;;9.50;99.90;;;;;;5156592;27;20163;-68
2021/12/31 06:57:38;;;;;;;25.43;10.60;;;9.50;99.90;;;;;;5158680;27;20414;-68
2021/12/31 07:00:07;;;;;;;22.33;10.03;;;9.50;99.90;;;;;;5158907;27;20129;-68
2021/12/31 07:02:34;;;;;;;24.13;9.97;;;9.50;99.90;;;;;;5158308;27;20472;-67
2021/12/31 07:05:02;;;;;;;21.70;9.50;;;9.50;99.90;;;;;;5139154;27;20143;-68
2021/12/31 07:07:29;;;;;;;19.90;8.47;;;9.50;99.90;;;;;;5139758;27;20205;-68
2021/12/31 07:09:56;;;;;;;18.43;8.30;;;9.50;99.90;;;;;;5138939;27;20156;-68
2021/12/31 07:12:23;;;;;;;19.53;8.83;;;9.50;99.90;;;;;;5139169;27;20495;-67
2021/12/31 07:14:52;;;;;;;22.33;9.23;;;9.50;99.90;;;;;;5157213;27;20148;-68
2021/12/31 07:17:19;;;;;;;18.50;8.43;;;9.50;99.90;;;;;;5140412;27;20437;-68
2021/12/31 07:19:46;;;;;;;18.97;8.90;;;9.50;99.90;;;;;;5139602;27;20449;-68
2021/12/31 07:22:13;;;;;;;18.10;8.70;;;9.50;99.90;;;;;;5139130;27;20525;-68
2021/12/31 07:24:41;;;;;;;19.93;8.47;;;9.50;99.90;;;;;;5157409;27;20530;-68
2021/12/31 07:27:08;;;;;;;15.07;7.47;;;9.60;99.90;;;;;;5157701;27;20500;-67
2021/12/31 07:29:35;;;;;;;15.37;7.87;;;9.60;99.90;;;;;;5157841;27;20120;-67
2021/12/31 07:32:03;;;;;;;15.83;7.93;;;9.60;99.90;;;;;;5139056;27;20144;-67
2021/12/31 07:34:30;;;;;;;15.73;7.30;;;9.60;99.90;;;;;;5138394;27;20401;-67
2021/12/31 07:36:57;;;;;;;14.83;7.43;;;9.60;99.90;;;;;;5139366;27;20152;-67
2021/12/31 07:39:30;;;;;;;15.27;7.93;;;9.60;99.90;;;;;;5138524;27;20147;-67
2021/12/31 07:41:58;;;;;;;14.33;7.30;;;9.60;99.90;;;;;;5139265;27;20413;-67
2021/12/31 07:44:25;;;;;;;14.07;6.90;;;9.70;99.90;;;;;;5138523;27;20506;-67
2021/12/31 07:46:52;;;;;;;14.70;6.83;;;9.70;99.90;;;;;;5139852;27;20159;-67
2021/12/31 07:49:19;;;;;;;12.07;6.70;;;9.70;99.90;;;;;;5157251;27;20172;-67
2021/12/31 07:51:46;;;;;;;12.93;6.67;;;9.70;99.90;;;;;;5156450;27;20180;-67
2021/12/31 07:54:13;;;;;;;11.33;6.13;;;9.80;99.90;;;;;;5140982;27;20148;-67
2021/12/31 07:56:40;;;;;;;11.47;6.37;;;9.80;99.90;;;;;;5156059;27;20195;-67
2021/12/31 07:59:07;;;;;;;10.43;5.77;;;9.80;99.90;;;;;;5156247;27;20192;-67
2021/12/31 08:01:34;;;;;;;12.73;5.60;;;9.80;99.90;;;;;;5139178;27;20170;-68
2021/12/31 08:04:02;;;;;;;10.63;5.40;;;9.80;99.90;;;;;;5139493;27;20512;-67
2021/12/31 08:06:29;;;;;;;10.70;5.80;;;9.80;99.90;;;;;;5139591;27;20144;-68
2021/12/31 08:08:56;;;;;;;10.40;5.63;;;9.90;99.90;;;;;;5138518;27;20192;-68
2021/12/31 08:11:26;;;;;;;7.87;4.80;;;9.90;99.90;;;;;;5140253;27;20161;-67
2021/12/31 08:13:56;;;;;;;9.17;4.80;;;9.90;99.90;;;;;;5158607;27;20135;-68
2021/12/31 08:16:24;;;;;;;10.57;5.40;;;9.90;99.90;;;;;;5155995;27;20198;-68
2021/12/31 08:18:51;;;;;;;13.57;5.27;;;9.90;99.90;;;;;;5138859;27;20515;-68
2021/12/31 08:21:19;;;;;;;6.97;4.67;;;9.90;99.90;;;;;;5157691;27;20482;-68
2021/12/31 08:23:46;;;;;;;10.33;5.23;;;9.90;99.90;;;;;;5157992;27;20119;-68
2021/12/31 08:26:13;;;;;;;10.23;4.50;;;9.90;99.90;;;;;;5138755;27;20430;-68
2021/12/31 08:28:40;;;;;;;7.30;4.30;;;9.90;99.90;;;;;;5157844;27;20218;-68
2021/12/31 08:31:07;;;;;;;6.43;4.10;;;9.90;99.90;;;;;;5157796;27;20134;-68
2021/12/31 08:33:34;;;;;;;5.70;3.63;;;9.90;99.90;;;;;;5139530;27;20191;-68
2021/12/31 08:36:02;;;;;;;6.33;3.80;;;9.90;99.90;;;;;;5139338;27;20175;-68
2021/12/31 08:38:29;;;;;;;6.77;3.80;;;9.90;99.90;;;;;;5138959;27;20361;-68
2021/12/31 08:40:57;;;;;;;7.13;3.93;;;10.00;99.90;;;;;;5139140;27;20156;-68
2021/12/31 08:43:24;;;;;;;8.73;3.40;;;10.00;99.90;;;;;;5138993;27;20266;-68
2021/12/31 08:45:51;;;;;;;6.03;3.83;;;10.00;99.90;;;;;;5157034;27;20155;-68
2021/12/31 08:48:19;;;;;;;5.33;3.80;;;10.00;99.90;;;;;;5140938;27;20424;-68
2021/12/31 08:50:48;;;;;;;6.63;3.80;;;10.00;99.90;;;;;;5139905;27;20148;-68
2021/12/31 08:53:17;;;;;;;7.73;4.13;;;10.00;99.90;;;;;;5140069;27;20158;-68
2021/12/31 08:55:44;;;;;;;7.20;3.73;;;10.00;99.90;;;;;;5158603;27;20184;-68
2021/12/31 08:58:14;;;;;;;8.03;3.67;;;10.00;99.90;;;;;;5157667;27;20191;-68
2021/12/31 09:00:41;;;;;;;6.43;3.67;;;10.00;99.90;;;;;;5140223;27;20135;-68
2021/12/31 09:03:09;;;;;;;5.77;3.47;;;10.00;99.90;;;;;;5141089;27;20144;-68
2021/12/31 09:05:36;;;;;;;3.90;2.93;;;10.00;99.90;;;;;;5140512;27;20152;-68
2021/12/31 09:08:03;;;;;;;6.13;3.47;;;10.00;99.90;;;;;;5140443;27;20494;-68
2021/12/31 09:10:30;;;;;;;4.37;3.20;;;10.10;99.90;;;;;;5139910;27;20195;-68
2021/12/31 09:12:57;;;;;;;4.87;3.00;;;10.00;99.90;;;;;;5157091;27;20155;-68
2021/12/31 09:15:24;;;;;;;5.33;3.20;;;10.10;99.90;;;;;;5157435;27;20170;-68
2021/12/31 09:17:51;;;;;;;4.70;3.23;;;10.10;99.90;;;;;;5156927;27;20564;-68
2021/12/31 09:20:18;;;;;;;6.53;3.00;;;10.10;99.90;;;;;;5140092;27;20266;-68
2021/12/31 09:22:45;;;;;;;4.67;3.20;;;10.20;99.90;;;;;;5159648;27;20116;-68
2021/12/31 09:25:14;;;;;;;6.23;3.23;;;10.20;99.90;;;;;;5140267;27;20256;-68
2021/12/31 09:27:42;;;;;;;4.93;3.03;;;10.20;99.90;;;;;;5157878;27;20152;-68
2021/12/31 09:30:10;;;;;;;4.93;2.87;;;10.20;99.90;;;;;;5139753;27;20160;-68
2021/12/31 09:32:37;;;;;;;4.37;3.20;;;10.20;99.90;;;;;;5140454;27;20166;-68
2021/12/31 09:35:06;;;;;;;5.53;3.43;;;10.20;99.90;;;;;;5140447;27;20446;-68
2021/12/31 09:37:33;;;;;;;5.47;3.03;;;10.20;99.90;;;;;;5157697;27;20140;-67
2021/12/31 09:40:01;;;;;;;5.57;3.70;;;10.20;99.90;;;;;;5124905;27;20194;-68
2021/12/31 09:42:28;;;;;;;4.47;3.30;;;10.30;99.90;;;;;;5140841;27;20155;-67
2021/12/31 09:44:55;;;;;;;5.83;3.17;;;10.20;99.90;;;;;;5157437;27;20163;-67
2021/12/31 09:47:23;;;;;;;6.03;3.50;;;10.30;99.90;;;;;;5139615;27;20158;-68
2021/12/31 09:49:52;;;;;;;5.07;3.60;;;10.30;99.90;;;;;;5140017;27;20148;-68
2021/12/31 09:52:22;;;;;;;6.50;3.83;;;10.30;99.90;;;;;;5157160;27;20151;-67
2021/12/31 09:54:50;;;;;;;7.03;4.07;;;10.30;99.90;;;;;;5139553;27;20187;-68
2021/12/31 09:57:19;;;;;;;6.33;4.10;;;10.30;99.90;;;;;;5140677;27;20389;-68
2021/12/31 09:59:47;;;;;;;5.57;3.87;;;10.30;99.90;;;;;;5158948;27;20128;-68
2021/12/31 10:02:33;;;;;;;5.63;3.80;;;10.30;99.90;;;;;;5140413;27;20407;-67
2021/12/31 10:05:03;;;;;;;7.90;3.93;;;10.30;99.90;;;;;;5140328;27;20478;-67
2021/12/31 10:07:30;;;;;;;4.73;3.70;;;10.30;99.90;;;;;;5157403;27;20444;-68
2021/12/31 10:10:12;;;;;;;6.20;3.93;;;10.30;99.90;;;;;;5141350;27;20512;-68
2021/12/31 10:12:56;;;;;;;6.17;4.37;;;10.30;99.90;;;;;;5137728;27;20513;-67
2021/12/31 10:15:26;;;;;;;5.80;4.40;;;10.40;99.90;;;;;;5156772;27;20159;-67
2021/12/31 10:17:54;;;;;;;6.63;4.80;;;10.40;99.90;;;;;;5157952;27;20204;-66
2021/12/31 10:20:22;;;;;;;7.37;5.30;;;10.40;99.90;;;;;;5139617;27;20505;-67
2021/12/31 10:23:13;;;;;;;7.57;5.37;;;10.40;99.90;;;;;;5159612;27;20175;-67
2021/12/31 10:25:40;;;;;;;9.23;5.90;;;10.40;99.90;;;;;;5155844;27;20550;-68
2021/12/31 10:28:10;;;;;;;9.20;5.93;;;10.40;99.90;;;;;;5158248;27;20406;-68
2021/12/31 10:30:40;;;;;;;9.80;6.33;;;10.40;99.90;;;;;;5158018;27;20624;-67
2021/12/31 10:33:08;;;;;;;10.43;7.03;;;10.40;99.90;;;;;;5158181;27;20120;-66
2021/12/31 10:35:45;;;;;;;11.80;7.57;;;10.40;99.90;;;;;;5157691;27;20127;-67
2021/12/31 10:38:12;;;;;;;12.30;8.07;;;10.40;99.90;;;;;;5140093;27;20156;-67
2021/12/31 10:40:45;;;;;;;13.07;7.77;;;10.50;99.90;;;;;;5158794;27;20127;-66
2021/12/31 10:43:25;;;;;;;13.13;8.37;;;10.50;99.90;;;;;;5138726;27;20151;-67
2021/12/31 10:46:07;;;;;;;12.53;8.10;;;10.40;99.90;;;;;;5139240;27;20158;-66
2021/12/31 10:48:40;;;;;;;15.07;9.53;;;10.50;99.90;;;;;;5140320;27;20152;-67
2021/12/31 10:51:09;;;;;;;15.40;10.70;;;10.50;99.90;;;;;;5139694;27;20159;-67
2021/12/31 10:53:37;;;;;;;19.17;11.17;;;10.50;99.90;;;;;;5138794;27;20149;-66
2021/12/31 10:56:09;;;;;;;17.53;10.87;;;10.50;99.90;;;;;;5138461;27;20378;-67
2021/12/31 10:58:38;;;;;;;15.53;9.83;;;10.50;99.90;;;;;;5156013;27;20179;-67
2021/12/31 11:01:08;;;;;;;12.90;9.00;;;10.50;99.90;;;;;;5156475;27;20116;-66
2021/12/31 11:03:38;;;;;;;15.33;9.37;;;10.50;99.90;;;;;;5138926;27;20136;-68
2021/12/31 11:06:07;;;;;;;15.77;10.13;;;10.50;99.90;;;;;;5138883;27;20166;-67
2021/12/31 11:08:35;;;;;;;15.13;10.07;;;10.50;99.90;;;;;;5138006;27;20163;-67
2021/12/31 11:11:04;;;;;;;16.00;10.80;;;10.50;99.90;;;;;;5156077;27;20180;-67
2021/12/31 11:13:31;;;;;;;17.50;10.40;;;10.50;99.90;;;;;;5156883;27;20183;-68
2021/12/31 11:16:00;;;;;;;16.10;10.43;;;10.50;99.90;;;;;;5140438;27;20156;-68
2021/12/31 11:18:27;;;;;;;15.40;10.50;;;10.50;99.90;;;;;;5157856;27;20121;-67
2021/12/31 11:20:58;;;;;;;16.13;10.70;;;10.50;99.90;;;;;;5157407;27;20191;-68
2021/12/31 11:23:30;;;;;;;17.30;10.67;;;10.50;99.90;;;;;;5138498;27;20178;-67
2021/12/31 11:26:06;;;;;;;15.93;10.77;;;10.50;99.90;;;;;;5140324;27;20260;-67
2021/12/31 11:28:35;;;;;;;16.43;11.03;;;10.50;99.90;;;;;;5140606;27;20208;-67
2021/12/31 11:31:20;;;;;;;16.83;10.47;;;10.50;99.90;;;;;;5159023;27;20147;-67
2021/12/31 11:33:59;;;;;;;17.00;11.07;;;10.60;99.90;;;;;;5138624;27;20163;-68
2021/12/31 11:36:46;;;;;;;18.80;11.80;;;10.60;99.90;;;;;;5139729;27;20183;-67
2021/12/31 11:39:22;;;;;;;15.37;10.30;;;10.60;99.90;;;;;;5138481;27;20147;-67
2021/12/31 11:41:58;;;;;;;17.83;10.33;;;10.60;99.90;;;;;;5157770;27;20123;-67
2021/12/31 11:44:26;;;;;;;17.97;11.40;;;10.60;99.90;;;;;;5138051;27;20159;-67
2021/12/31 11:47:14;;;;;;;19.47;11.40;;;10.60;99.90;;;;;;5138115;27;20466;-67
2021/12/31 11:49:46;;;;;;;16.40;10.80;;;10.70;99.90;;;;;;5157665;27;20187;-67
2021/12/31 11:52:23;;;;;;;19.27;11.70;;;10.70;99.90;;;;;;5138906;27;20179;-67
2021/12/31 11:55:16;;;;;;;16.20;10.23;;;10.70;99.90;;;;;;5157356;27;20183;-69
2021/12/31 11:57:43;;;;;;;18.13;11.40;;;10.70;99.90;;;;;;5158883;27;20135;-68
2021/12/31 12:00:24;;;;;;;19.37;12.30;;;10.70;99.90;;;;;;5157659;27;20129;-67
2021/12/31 12:02:51;;;;;;;19.00;12.63;;;10.70;99.90;;;;;;5138673;27;20440;-67
2021/12/31 12:05:22;;;;;;;19.47;12.90;;;10.70;99.90;;;;;;5155603;27;20175;-68
2021/12/31 12:07:52;;;;;;;26.87;13.93;;;10.80;99.90;;;;;;5138522;27;20204;-68
2021/12/31 12:10:26;;;;;;;20.63;13.80;;;10.80;99.90;;;;;;5155793;27;20152;-68
2021/12/31 12:13:17;;;;;;;22.87;14.57;;;10.80;99.90;;;;;;5139055;27;20144;-67
2021/12/31 12:15:44;;;;;;;23.40;15.27;;;10.80;99.90;;;;;;5140607;27;20144;-68
2021/12/31 12:18:14;;;;;;;24.50;15.30;;;10.80;99.90;;;;;;5155364;27;20220;-67
2021/12/31 12:20:42;;;;;;;25.13;15.33;;;10.80;99.90;;;;;;5140132;27;20180;-67
2021/12/31 12:23:11;;;;;;;23.77;15.70;;;10.80;99.90;;;;;;5139703;27;20182;-67
2021/12/31 12:25:40;;;;;;;22.63;15.73;;;10.80;99.90;;;;;;5135175;28;20163;-68
2021/12/31 12:28:10;;;;;;;24.27;15.63;;;10.90;99.90;;;;;;5118127;28;20196;-68
2021/12/31 12:30:46;;;;;;;25.10;16.00;;;10.80;99.90;;;;;;5118547;28;20280;-67
2021/12/31 12:33:20;;;;;;;24.57;15.30;;;10.90;99.90;;;;;;5118092;28;20160;-68
2021/12/31 12:35:50;;;;;;;24.47;15.50;;;10.90;99.90;;;;;;5138013;28;20143;-67
2021/12/31 12:38:37;;;;;;;23.63;15.63;;;10.90;99.90;;;;;;5120071;28;20140;-67
2021/12/31 12:41:09;;;;;;;22.40;14.80;;;10.90;99.90;;;;;;5120750;28;20148;-68
2021/12/31 12:43:45;;;;;;;22.00;14.70;;;10.90;99.90;;;;;;5118535;28;20148;-68
2021/12/31 12:46:17;;;;;;;22.37;15.80;;;11.00;99.90;;;;;;5135286;28;20144;-68
2021/12/31 12:48:50;;;;;;;22.07;14.37;;;11.00;99.90;;;;;;5119561;28;20183;-68
2021/12/31 12:51:31;;;;;;;20.77;14.87;;;11.00;99.90;;;;;;5118364;28;20156;-68